Time;durP1;ratioP1;P1;durP2;ratioP2;P2;SDS_P1;SDS_P2;PMS_P1;PMS_P2;Temp;Humidity;BMP_temperature;BMP_pressure;BME280_temperature;BME280_humidity;BME280_pressure;Samples;Min_cycle;Max_cycle;Signal;HPM_P1;HPM_P2
2022/01/28 00:00:35;;;;;;;12.02;3.80;;;;;;;3.31;76.37;101956.00;5022122;28;20115;-54
2022/01/28 00:03:11;;;;;;;8.55;2.80;;;;;;;3.27;76.01;101944.69;5019943;28;20045;-58
2022/01/28 00:05:39;;;;;;;7.05;3.47;;;;;;;3.25;75.55;101948.88;5017924;28;20560;-58
2022/01/28 00:08:06;;;;;;;9.82;3.97;;;;;;;3.26;75.83;101955.75;5023519;28;20053;-56
2022/01/28 00:10:33;;;;;;;9.18;4.30;;;;;;;3.23;76.25;101947.88;5017100;28;20073;-57
2022/01/28 00:13:13;;;;;;;16.23;4.35;;;;;;;3.20;75.86;101955.38;5020750;28;20587;-55
2022/01/28 00:16:22;;;;;;;10.13;3.92;;;;;;;3.18;75.84;101952.72;5021317;28;20103;-53
2022/01/28 00:19:01;;;;;;;11.02;3.90;;;;;;;3.16;76.19;101943.19;5030056;28;20498;-56
2022/01/28 00:38:06;;;;;;;9.77;4.13;;;;;;;3.15;77.17;101952.56;5019326;28;20167;-54
2022/01/28 00:40:34;;;;;;;9.25;3.88;;;;;;;3.16;76.59;101956.88;5026100;28;20493;-57
2022/01/28 00:43:02;;;;;;;13.98;4.22;;;;;;;3.18;77.44;101947.59;5027555;28;20071;-55
2022/01/28 00:45:28;;;;;;;9.85;4.25;;;;;;;3.20;77.33;101952.81;5023742;28;20115;-59
2022/01/28 00:47:55;;;;;;;16.60;4.72;;;;;;;3.22;77.66;101957.22;5028044;28;20083;-59
2022/01/28 00:50:23;;;;;;;13.63;5.07;;;;;;;3.24;76.67;101957.31;5018892;28;20127;-55
2022/01/28 00:52:50;;;;;;;10.55;4.13;;;;;;;3.24;77.87;101967.56;5020448;28;20099;-54
2022/01/28 00:55:16;;;;;;;8.98;3.88;;;;;;;3.25;77.11;101969.34;5025461;28;20053;-55
2022/01/28 00:57:43;;;;;;;11.50;4.75;;;;;;;3.24;76.98;101962.44;5026250;28;20053;-58
2022/01/28 01:00:11;;;;;;;18.00;4.55;;;;;;;3.26;77.86;101971.09;5026691;28;20111;-56
2022/01/28 01:02:38;;;;;;;10.63;4.55;;;;;;;3.25;77.59;101964.22;5025805;28;20578;-57
2022/01/28 01:05:06;;;;;;;15.95;4.65;;;;;;;3.25;77.01;101961.66;5024722;28;20072;-55
2022/01/28 01:07:33;;;;;;;13.50;6.32;;;;;;;3.24;77.28;101965.00;5026465;28;20107;-55
2022/01/28 01:09:59;;;;;;;13.45;5.00;;;;;;;3.24;76.86;101961.56;5025033;28;20103;-58
2022/01/28 01:12:29;;;;;;;16.42;5.90;;;;;;;3.22;76.85;101967.47;5017873;28;20143;-55
2022/01/28 01:14:55;;;;;;;13.20;5.70;;;;;;;3.23;77.39;101960.69;5021760;28;20053;-55
2022/01/28 01:20:30;;;;;;;13.10;5.78;;;;;;;3.17;77.48;101965.44;5043057;28;20054;-58
2022/01/28 01:23:16;;;;;;;14.00;5.53;;;;;;;3.16;77.20;101969.69;5037733;28;20053;-57
2022/01/28 01:25:49;;;;;;;10.80;5.30;;;;;;;3.14;77.26;101963.56;5042564;28;20184;-54
2022/01/28 01:28:19;;;;;;;15.30;6.00;;;;;;;3.14;77.13;101976.38;5024876;28;20660;-56
2022/01/28 01:30:46;;;;;;;14.05;6.57;;;;;;;3.13;77.21;101981.41;5027265;28;20434;-55
2022/01/28 01:33:15;;;;;;;9.73;5.75;;;;;;;3.11;77.23;101980.44;5023678;28;20779;-56
2022/01/28 01:35:42;;;;;;;14.70;6.05;;;;;;;3.10;77.28;101983.81;5026491;28;20056;-56
2022/01/28 01:38:10;;;;;;;17.02;5.78;;;;;;;3.06;77.29;101978.50;5025711;28;20069;-56
2022/01/28 01:40:46;;;;;;;13.35;5.35;;;;;;;3.04;77.62;101969.84;5029779;28;20049;-54
2022/01/28 01:43:30;;;;;;;11.38;5.15;;;;;;;3.02;76.70;101971.44;5025938;28;20045;-53
2022/01/28 01:46:16;;;;;;;12.50;6.30;;;;;;;2.94;76.12;101958.16;5025967;28;20136;-56
2022/01/28 01:54:16;;;;;;;12.30;5.40;;;;;;;2.88;78.04;101974.84;5021584;28;20076;-54
2022/01/28 01:56:43;;;;;;;15.90;5.88;;;;;;;2.88;76.73;101985.09;5025636;28;20638;-59
2022/01/28 01:59:10;;;;;;;13.57;4.88;;;;;;;2.89;77.64;101986.84;5025602;28;20069;-56
2022/01/28 02:01:38;;;;;;;16.35;5.63;;;;;;;2.90;76.92;102001.44;5023518;28;20099;-54
2022/01/28 02:04:06;;;;;;;11.38;4.97;;;;;;;2.86;77.32;101991.75;5023119;28;20145;-53
2022/01/28 02:06:33;;;;;;;12.63;5.78;;;;;;;2.85;77.03;101987.44;5024230;28;20056;-56
2022/01/28 02:09:00;;;;;;;13.27;5.57;;;;;;;2.81;76.20;101994.94;5028209;28;20115;-56
2022/01/28 02:11:26;;;;;;;12.68;5.72;;;;;;;2.76;76.53;101993.78;5023463;28;20061;-58
2022/01/28 02:13:53;;;;;;;12.88;5.30;;;;;;;2.72;76.81;101999.50;5025479;28;20111;-57
2022/01/28 02:16:20;;;;;;;12.32;5.65;;;;;;;2.68;76.63;102000.13;5019506;28;20049;-56
2022/01/28 02:18:47;;;;;;;15.23;5.57;;;;;;;2.65;77.39;102002.47;5023204;28;20042;-57
2022/01/28 02:21:16;;;;;;;11.50;5.43;;;;;;;2.61;76.14;101995.41;5024360;28;21259;-56
2022/01/28 02:23:46;;;;;;;12.23;5.05;;;;;;;2.59;77.65;102002.09;5030390;28;20214;-57
2022/01/28 02:26:15;;;;;;;9.52;5.10;;;;;;;2.57;76.41;101995.22;5019805;28;20053;-57
2022/01/28 02:28:46;;;;;;;12.93;6.18;;;;;;;2.54;76.10;101997.56;5026351;28;20359;-56
2022/01/28 02:31:18;;;;;;;12.82;4.80;;;;;;;2.52;77.30;101999.16;5022987;28;20049;-57
2022/01/28 02:33:45;;;;;;;11.25;5.15;;;;;;;2.49;77.37;102004.09;5025812;28;20041;-54
2022/01/28 02:36:12;;;;;;;10.85;4.50;;;;;;;2.47;76.55;102008.25;5021124;28;20092;-56
2022/01/28 02:38:39;;;;;;;15.65;4.82;;;;;;;2.46;76.86;102009.00;5023462;28;20076;-53
2022/01/28 02:41:06;;;;;;;11.70;4.97;;;;;;;2.45;77.12;102017.47;5024375;28;20084;-55
2022/01/28 02:43:39;;;;;;;12.50;4.80;;;;;;;2.44;76.81;102010.59;5025621;28;20045;-58
2022/01/28 02:46:13;;;;;;;15.93;5.97;;;;;;;2.46;77.43;102014.13;5021681;28;20512;-58
2022/01/28 02:48:52;;;;;;;11.32;6.22;;;;;;;2.45;77.65;102020.03;5018244;28;20661;-53
2022/01/28 02:51:21;;;;;;;13.90;5.28;;;;;;;2.44;76.98;102021.69;5023049;28;20049;-58
2022/01/28 02:53:55;;;;;;;12.73;4.97;;;;;;;2.43;76.26;102013.94;5022035;28;20053;-58
2022/01/28 02:56:33;;;;;;;14.77;5.40;;;;;;;2.41;77.79;102024.09;5025683;28;20054;-58
2022/01/28 02:59:05;;;;;;;11.90;4.97;;;;;;;2.38;76.61;102025.56;5020634;28;20131;-59
2022/01/28 03:01:31;;;;;;;8.60;4.50;;;;;;;2.38;76.50;102030.66;5020381;28;20092;-57
2022/01/28 03:04:01;;;;;;;11.68;4.47;;;;;;;2.35;76.86;102020.25;5020864;28;20517;-54
2022/01/28 03:06:28;;;;;;;12.30;5.85;;;;;;;2.34;76.79;102014.25;5025082;28;20045;-58
2022/01/28 03:08:58;;;;;;;14.85;5.68;;;;;;;2.31;77.33;102009.84;5020707;28;20481;-57
2022/01/28 03:11:42;;;;;;;12.38;5.47;;;;;;;2.29;77.72;102025.84;5023918;28;20046;-56
2022/01/28 03:14:17;;;;;;;10.57;5.53;;;;;;;2.24;76.35;102017.91;5020069;28;20536;-59
2022/01/28 03:17:11;;;;;;;10.73;4.05;;;;;;;2.21;76.90;102012.59;5020141;28;20057;-57
2022/01/28 03:19:51;;;;;;;13.82;5.22;;;;;;;2.20;76.84;102021.06;5024770;28;20401;-56
2022/01/28 03:22:18;;;;;;;11.52;4.53;;;;;;;2.21;76.80;102017.72;5021246;28;20045;-52
2022/01/28 03:24:50;;;;;;;11.05;4.13;;;;;;;2.20;77.04;102021.06;5023703;28;20100;-55
2022/01/28 03:27:33;;;;;;;8.70;3.38;;;;;;;2.22;76.20;102009.25;5024475;28;20135;-55
2022/01/28 03:30:00;;;;;;;;;;;;;;;2.19;77.06;102014.16;5019048;28;20449;-55
2022/01/28 03:32:26;;;;;;;11.60;4.88;;;;;;;2.24;77.44;102007.69;5024189;28;19983;-56
2022/01/28 03:34:53;;;;;;;10.95;4.53;;;;;;;2.26;77.19;101995.00;5023154;28;20057;-56
2022/01/28 03:37:21;;;;;;;10.95;3.80;;;;;;;2.26;77.77;101989.88;5020910;28;20057;-56
2022/01/28 03:39:48;;;;;;;8.93;4.00;;;;;;;2.26;76.83;101993.31;5022399;28;20114;-54
2022/01/28 03:42:15;;;;;;;12.45;3.95;;;;;;;2.27;76.29;101987.38;5026847;28;20049;-56
2022/01/28 03:44:41;;;;;;;8.15;3.42;;;;;;;2.27;77.41;101982.28;5021119;28;20587;-50
2022/01/28 03:47:08;;;;;;;8.35;3.67;;;;;;;2.29;77.13;101990.94;5025615;28;20540;-58
2022/01/28 03:49:34;;;;;;;7.00;2.72;;;;;;;2.30;76.76;101987.59;5028013;28;20049;-54
2022/01/28 03:52:01;;;;;;;8.10;3.38;;;;;;;2.31;77.12;101981.72;5026546;28;20131;-55
2022/01/28 03:54:28;;;;;;;12.10;4.13;;;;;;;2.35;76.63;101979.31;5023266;28;20068;-58
2022/01/28 03:56:54;;;;;;;10.27;3.60;;;;;;;2.37;78.18;101995.66;5024099;28;20069;-56
2022/01/28 03:59:21;;;;;;;10.45;2.78;;;;;;;2.39;77.29;101986.38;5022849;28;20076;-54
2022/01/28 04:01:49;;;;;;;7.53;3.15;;;;;;;2.40;77.78;101976.25;5023180;28;20494;-58
2022/01/28 04:12:39;;;;;;;6.18;2.42;;;;;;;2.41;76.95;101995.06;5039490;28;20042;-56
2022/01/28 04:15:37;;;;;;;5.45;2.65;;;;;;;2.41;77.56;102000.19;5023861;28;20053;-55
2022/01/28 04:17:53;;;;;;;6.13;2.80;;;;;;;2.43;77.41;101998.56;5043507;28;20045;-52
2022/01/28 04:20:19;;;;;;;14.38;2.72;;;;;;;2.45;76.76;101989.34;5023930;28;20074;-56
2022/01/28 04:22:46;;;;;;;6.90;2.85;;;;;;;2.48;77.80;101994.66;5029598;28;20700;-56
2022/01/28 04:25:13;;;;;;;8.60;2.72;;;;;;;2.50;77.64;101990.50;5024117;28;20119;-56
2022/01/28 04:27:39;;;;;;;8.73;3.17;;;;;;;2.50;77.90;101998.19;5025817;28;20042;-57
2022/01/28 04:30:06;;;;;;;7.65;2.67;;;;;;;2.53;76.95;102006.03;5026686;28;20046;-55
2022/01/28 04:32:34;;;;;;;6.70;3.20;;;;;;;2.51;77.47;102002.53;5028168;28;20556;-57
2022/01/28 04:35:01;;;;;;;8.27;3.63;;;;;;;2.50;76.74;101990.50;5028336;28;20045;-56
2022/01/28 04:37:31;;;;;;;6.45;2.83;;;;;;;2.48;77.15;101996.31;5026121;28;20099;-54
2022/01/28 04:40:10;;;;;;;6.43;3.55;;;;;;;2.45;78.23;101997.00;5023416;28;20099;-56
2022/01/28 04:42:47;;;;;;;13.60;2.95;;;;;;;2.46;78.38;101982.56;5026414;28;20489;-57
2022/01/28 04:45:22;;;;;;;;;;;;;;;2.42;79.09;101992.59;5028270;28;20140;-56
2022/01/28 04:48:14;;;;;;;7.70;2.85;;;;;;;2.45;77.36;101989.34;5023935;28;20373;-55
2022/01/28 04:53:36;;;;;;;11.70;4.63;;;;;;;2.47;78.47;101990.34;5041468;28;20385;-56
2022/01/28 04:56:15;;;;;;;13.43;4.60;;;;;;;2.47;77.95;101969.88;5026093;28;20084;-58
2022/01/28 04:58:57;;;;;;;10.38;6.40;;;;;;;2.43;77.53;101978.13;5025874;28;20383;-59
2022/01/28 05:02:02;;;;;;;11.85;4.40;;;;;;;2.41;77.93;101979.72;5020703;28;20046;-57
2022/01/28 05:04:36;;;;;;;14.05;5.07;;;;;;;2.38;77.66;101980.41;5039556;28;20124;-56
2022/01/28 05:13:05;;;;;;;9.65;4.25;;;;;;;2.31;78.25;101970.59;5026470;28;20131;-56
2022/01/28 05:24:11;;;;;;;13.63;5.00;;;;;;;2.20;77.78;102015.94;5028819;28;20058;-58
2022/01/28 05:26:31;;;;;;;13.63;4.88;;;;;;;2.21;77.22;102016.81;5038150;28;20469;-55
2022/01/28 05:28:58;;;;;;;11.48;5.28;;;;;;;2.18;78.64;102013.28;5027861;28;20493;-56
2022/01/28 05:31:25;;;;;;;17.90;4.70;;;;;;;2.18;77.35;102015.84;5021016;28;20061;-54
2022/01/28 05:33:57;;;;;;;14.00;5.30;;;;;;;2.17;78.69;102005.53;5025888;28;20041;-57
2022/01/28 05:36:24;;;;;;;13.75;5.38;;;;;;;2.16;77.67;102014.00;5022531;28;20107;-57
2022/01/28 05:38:50;;;;;;;13.70;5.22;;;;;;;2.16;78.24;102006.31;5026126;28;20622;-56
2022/01/28 05:41:17;;;;;;;17.30;6.30;;;;;;;2.17;78.62;102020.88;5024661;28;20053;-56
2022/01/28 05:43:43;;;;;;;14.45;5.18;;;;;;;2.18;78.39;102017.50;5026879;28;20061;-58
2022/01/28 05:46:10;;;;;;;15.45;5.30;;;;;;;2.18;78.49;102035.41;5023677;28;20045;-54
2022/01/28 05:48:37;;;;;;;14.82;5.85;;;;;;;2.15;78.54;102020.75;5018363;28;20564;-57
2022/01/28 05:51:04;;;;;;;16.38;5.05;;;;;;;2.17;77.94;102041.31;5019411;28;20103;-55
2022/01/28 05:53:31;;;;;;;13.25;5.22;;;;;;;2.15;78.10;102036.09;5022567;28;20140;-58
2022/01/28 05:55:58;;;;;;;16.10;4.85;;;;;;;2.15;77.83;102045.44;5021148;28;20046;-56
2022/01/28 05:58:25;;;;;;;10.57;4.38;;;;;;;2.16;77.77;102044.66;5023000;28;20095;-53
2022/01/28 06:00:52;;;;;;;13.30;4.25;;;;;;;2.16;77.88;102040.41;5024347;28;20058;-54
2022/01/28 06:03:19;;;;;;;14.00;5.30;;;;;;;2.17;77.87;102049.00;5019349;28;20049;-56
2022/01/28 06:05:47;;;;;;;15.73;6.15;;;;;;;2.18;79.16;102043.06;5020423;28;20484;-57
2022/01/28 06:08:14;;;;;;;17.20;5.63;;;;;;;2.17;77.89;102038.75;5019692;28;20060;-58
2022/01/28 06:10:41;;;;;;;14.32;5.60;;;;;;;2.13;77.73;102040.22;4999348;28;20073;-55
2022/01/28 06:13:11;;;;;;;11.60;5.05;;;;;;;2.15;78.58;102042.88;4999801;28;20077;-56
2022/01/28 06:15:42;;;;;;;12.70;4.07;;;;;;;2.16;77.55;102044.66;5013730;28;20493;-58
2022/01/28 06:18:11;;;;;;;13.25;5.03;;;;;;;2.16;77.82;102039.56;5018961;28;20049;-56
2022/01/28 06:20:37;;;;;;;13.57;5.03;;;;;;;2.16;77.51;102039.56;5020349;28;20053;-54
2022/01/28 06:23:10;;;;;;;13.02;5.55;;;;;;;2.15;78.03;102032.66;5018777;28;20993;-56
2022/01/28 06:25:39;;;;;;;14.68;5.30;;;;;;;2.15;77.67;102032.66;5022381;28;20076;-58
2022/01/28 06:28:06;;;;;;;12.55;4.30;;;;;;;2.15;77.35;102033.53;5025835;28;20053;-58
2022/01/28 06:30:32;;;;;;;12.35;4.90;;;;;;;2.13;77.57;102029.13;5023463;28;20053;-51
2022/01/28 06:32:59;;;;;;;16.15;5.90;;;;;;;2.13;78.33;102024.00;5025752;28;20552;-53
2022/01/28 06:35:25;;;;;;;15.98;5.20;;;;;;;2.11;77.75;102026.47;5024805;28;20058;-57
2022/01/28 06:37:52;;;;;;;16.20;5.65;;;;;;;2.11;79.03;102016.25;5025310;28;20045;-59
2022/01/28 06:40:19;;;;;;;17.17;6.15;;;;;;;2.11;79.17;102020.47;5021904;28;20989;-54
2022/01/28 06:42:46;;;;;;;13.05;4.93;;;;;;;2.13;78.89;102026.56;5032173;28;20053;-54
2022/01/28 06:45:13;;;;;;;11.95;5.25;;;;;;;2.15;79.15;102027.53;5024061;28;20049;-53
2022/01/28 06:47:39;;;;;;;13.50;5.22;;;;;;;2.16;78.18;102027.63;5024655;28;20424;-58
2022/01/28 06:50:08;;;;;;;13.23;5.18;;;;;;;2.18;78.40;102020.97;5021203;28;21324;-56
2022/01/28 06:52:35;;;;;;;10.80;4.80;;;;;;;2.18;78.28;102022.63;5021830;28;20122;-56
2022/01/28 06:55:03;;;;;;;16.63;5.05;;;;;;;2.17;78.66;102020.88;5020362;28;20099;-57
2022/01/28 06:57:30;;;;;;;15.98;5.18;;;;;;;2.20;78.59;102020.16;5019967;28;20057;-57
2022/01/28 06:59:58;;;;;;;14.77;5.30;;;;;;;2.18;78.80;102012.41;5021229;28;20049;-56
2022/01/28 07:02:24;;;;;;;16.40;5.05;;;;;;;2.18;79.12;102012.41;5018841;28;20053;-57
2022/01/28 07:04:51;;;;;;;17.67;5.47;;;;;;;2.19;78.30;102009.03;5018886;28;20084;-55
2022/01/28 07:07:22;;;;;;;12.75;5.40;;;;;;;2.22;79.46;102008.34;5018087;28;20049;-54
2022/01/28 07:09:49;;;;;;;19.40;5.03;;;;;;;2.21;79.84;102012.59;5018336;28;20053;-55
2022/01/28 07:12:16;;;;;;;12.15;4.43;;;;;;;2.22;78.47;102019.47;5020417;28;20115;-57
2022/01/28 07:14:42;;;;;;;13.13;4.55;;;;;;;2.24;79.13;102022.13;5018001;28;20120;-56
2022/01/28 07:17:09;;;;;;;13.27;4.93;;;;;;;2.25;79.38;102040.13;5022114;28;20108;-52
2022/01/28 07:19:36;;;;;;;11.70;4.03;;;;;;;2.27;79.06;102043.66;5022556;28;20089;-58
2022/01/28 07:22:04;;;;;;;14.23;5.43;;;;;;;2.25;77.78;102045.25;5017894;28;20077;-55
2022/01/28 07:24:30;;;;;;;10.98;4.70;;;;;;;2.25;77.74;102045.25;5021811;28;20131;-55
2022/01/28 07:26:57;;;;;;;11.68;4.45;;;;;;;2.25;78.81;102050.34;5021629;28;20049;-55
2022/01/28 07:29:28;;;;;;;13.00;4.60;;;;;;;2.25;79.06;102050.34;5021140;28;20045;-54
2022/01/28 07:31:55;;;;;;;11.88;4.97;;;;;;;2.25;79.09;102040.13;5021640;28;20081;-54
2022/01/28 07:34:22;;;;;;;14.80;5.45;;;;;;;2.26;77.85;102036.78;5020282;28;20045;-56
2022/01/28 07:36:49;;;;;;;12.60;4.38;;;;;;;2.26;78.48;102030.78;5020248;28;20860;-57
2022/01/28 07:39:16;;;;;;;12.32;4.45;;;;;;;2.27;79.22;102032.56;5025060;28;20049;-56
2022/01/28 07:41:43;;;;;;;11.88;5.63;;;;;;;2.26;79.43;102021.44;5020107;28;20041;-54
2022/01/28 07:44:10;;;;;;;16.67;5.03;;;;;;;2.27;78.36;102018.06;5019615;28;20540;-56
2022/01/28 07:46:36;;;;;;;13.90;4.75;;;;;;;2.25;78.48;102019.66;5018694;28;20184;-56
2022/01/28 07:49:03;;;;;;;12.18;5.00;;;;;;;2.26;78.27;102021.44;5016869;28;20727;-58
2022/01/28 07:51:30;;;;;;;13.73;5.90;;;;;;;2.26;79.26;102021.44;5019553;28;20087;-56
2022/01/28 07:53:56;;;;;;;13.15;5.05;;;;;;;2.30;78.50;102033.63;5017778;28;20045;-55
2022/01/28 07:56:24;;;;;;;13.82;4.95;;;;;;;2.33;78.85;102032.06;5017578;28;20549;-57
2022/01/28 07:58:51;;;;;;;11.82;4.80;;;;;;;2.38;78.55;102043.47;5022644;28;20053;-57
2022/01/28 08:01:17;;;;;;;28.67;5.60;;;;;;;2.41;78.74;102046.22;5020779;28;20049;-54
2022/01/28 08:03:44;;;;;;;15.23;5.10;;;;;;;2.45;79.45;102055.84;5020163;28;20049;-55
2022/01/28 08:06:11;;;;;;;12.43;4.63;;;;;;;2.51;79.12;102063.91;5021787;28;20054;-56
2022/01/28 08:08:37;;;;;;;12.07;5.15;;;;;;;2.54;79.38;102066.66;5021440;28;20123;-59
2022/01/28 08:11:04;;;;;;;14.32;4.03;;;;;;;2.60;79.54;102060.16;5023732;28;20053;-57
2022/01/28 08:13:31;;;;;;;13.27;4.28;;;;;;;2.65;78.33;102076.69;5021992;28;20127;-54
2022/01/28 08:15:58;;;;;;;13.90;5.00;;;;;;;2.68;78.63;102066.63;5017313;28;20057;-58
2022/01/28 08:18:24;;;;;;;12.98;4.30;;;;;;;2.72;79.25;102053.25;5018832;28;20520;-57
2022/01/28 08:20:52;;;;;;;11.60;4.60;;;;;;;2.74;79.50;102051.69;5017901;28;20053;-56
2022/01/28 08:23:18;;;;;;;14.75;5.05;;;;;;;2.77;79.08;102048.41;5021334;28;20061;-54
2022/01/28 08:25:46;;;;;;;9.68;4.40;;;;;;;2.81;79.61;102058.06;5022501;28;20065;-55
2022/01/28 08:28:13;;;;;;;14.85;4.45;;;;;;;2.87;79.12;102052.44;5021610;28;20049;-58
2022/01/28 08:30:40;;;;;;;17.02;4.15;;;;;;;2.87;79.38;102057.56;5018485;28;20553;-54
2022/01/28 08:33:07;;;;;;;15.60;4.78;;;;;;;2.92;78.77;102051.91;5019954;28;20072;-55
2022/01/28 08:35:37;;;;;;;13.70;4.38;;;;;;;2.96;78.61;102045.28;5023627;28;20060;-55
2022/01/28 08:38:15;;;;;;;13.27;5.30;;;;;;;3.00;79.01;102054.06;5035291;28;20673;-56
2022/01/28 08:40:43;;;;;;;13.25;4.78;;;;;;;3.03;79.77;102057.69;5027426;28;20046;-55
2022/01/28 08:43:09;;;;;;;10.88;4.07;;;;;;;3.07;78.51;102061.31;5029835;28;20053;-54
2022/01/28 08:45:36;;;;;;;10.63;4.32;;;;;;;3.12;79.14;102048.78;5025621;28;20091;-57
2022/01/28 08:48:03;;;;;;;10.15;4.65;;;;;;;3.12;79.03;102044.56;5025442;28;20046;-57
2022/01/28 08:50:30;;;;;;;12.27;3.55;;;;;;;3.14;79.89;102052.34;5024386;28;20052;-56
2022/01/28 08:52:57;;;;;;;12.57;4.47;;;;;;;3.17;79.66;102044.81;5023519;28;20053;-56
2022/01/28 08:55:24;;;;;;;12.90;3.47;;;;;;;3.21;78.87;102034.00;5028704;28;20098;-59
2022/01/28 08:57:51;;;;;;;10.23;3.55;;;;;;;3.27;79.28;102033.47;5028111;28;20041;-56
2022/01/28 09:00:18;;;;;;;9.65;3.58;;;;;;;3.31;79.41;102041.41;5028706;28;20103;-58
2022/01/28 09:02:45;;;;;;;8.98;3.58;;;;;;;3.34;79.92;102041.59;5023331;28;20059;-57
2022/01/28 09:05:12;;;;;;;10.05;3.65;;;;;;;3.38;79.30;102034.09;5020386;28;20057;-57
2022/01/28 09:07:38;;;;;;;9.65;4.00;;;;;;;3.43;79.10;102037.81;5021368;28;20406;-59
2022/01/28 09:10:12;;;;;;;12.48;3.85;;;;;;;3.49;78.70;102037.28;5023213;28;20054;-55
2022/01/28 09:12:47;;;;;;;9.88;3.35;;;;;;;3.52;79.67;102040.94;5015330;28;20064;-55
2022/01/28 09:15:14;;;;;;;8.48;3.55;;;;;;;3.57;78.81;102039.50;5028355;28;20049;-56
2022/01/28 09:17:53;;;;;;;9.77;3.42;;;;;;;3.63;79.39;102043.22;5020153;28;20065;-57
2022/01/28 09:20:26;;;;;;;8.75;2.85;;;;;;;3.68;78.58;102036.69;5019485;28;20057;-58
2022/01/28 09:22:52;;;;;;;9.82;4.03;;;;;;;3.71;79.32;102036.84;5025155;28;20091;-54
2022/01/28 09:25:19;;;;;;;12.65;3.53;;;;;;;3.76;78.54;102044.81;5022351;28;20099;-53
2022/01/28 09:27:45;;;;;;;8.10;3.75;;;;;;;3.81;79.11;102049.41;5023371;28;20042;-57
2022/01/28 09:30:12;;;;;;;11.45;4.10;;;;;;;3.84;78.58;102057.28;5025021;28;20057;-58
2022/01/28 09:32:38;;;;;;;13.70;3.38;;;;;;;3.88;78.67;102049.75;5023831;28;20049;-58
2022/01/28 09:35:06;;;;;;;8.27;3.47;;;;;;;3.91;78.41;102049.91;5026102;28;20037;-58
2022/01/28 09:37:34;;;;;;;9.50;3.72;;;;;;;3.93;78.44;102040.63;5026781;28;20049;-56
2022/01/28 09:40:02;;;;;;;11.43;3.35;;;;;;;3.97;79.12;102027.19;5028443;28;20049;-47
2022/01/28 09:42:31;;;;;;;6.75;2.75;;;;;;;4.00;78.71;102024.81;5027597;28;20477;-56
2022/01/28 09:44:59;;;;;;;11.25;5.07;;;;;;;4.03;78.83;102019.88;5021736;28;20633;-60
2022/01/28 09:47:26;;;;;;;9.50;3.92;;;;;;;4.07;78.27;102010.66;5023170;28;20482;-59
2022/01/28 09:49:53;;;;;;;9.85;3.55;;;;;;;4.09;78.03;102004.78;5024584;28;20482;-58
2022/01/28 09:52:19;;;;;;;8.82;3.13;;;;;;;4.14;78.43;102004.16;5025587;28;20042;-58
2022/01/28 09:54:46;;;;;;;7.55;3.75;;;;;;;4.16;78.43;101997.47;5020923;28;20050;-58
2022/01/28 09:57:18;;;;;;;11.70;3.60;;;;;;;4.15;78.78;101998.25;5024911;28;20045;-59
2022/01/28 09:59:46;;;;;;;10.10;4.03;;;;;;;4.20;78.14;102004.53;5024841;28;20049;-58
2022/01/28 10:02:13;;;;;;;10.25;4.22;;;;;;;4.23;78.44;102012.38;5025298;28;20493;-59
2022/01/28 10:04:40;;;;;;;11.93;3.85;;;;;;;4.26;78.22;102024.50;5028593;28;20041;-60
2022/01/28 10:07:10;;;;;;;12.65;3.33;;;;;;;4.29;78.72;102029.81;5022867;28;20058;-60
2022/01/28 10:09:52;;;;;;;12.65;6.13;;;;;;;4.32;78.78;102040.25;5023280;28;20076;-58
2022/01/28 10:12:26;;;;;;;15.00;5.30;;;;;;;4.36;78.12;102037.91;5023791;28;20490;-57
2022/01/28 10:15:07;;;;;;;18.13;6.35;;;;;;;4.37;78.00;102032.00;5024358;28;20049;-59
2022/01/28 10:17:56;;;;;;;10.63;4.82;;;;;;;4.41;78.35;102032.13;5028167;28;20123;-58
2022/01/28 10:20:24;;;;;;;10.27;4.50;;;;;;;4.44;78.28;102022.94;5040470;28;20054;-58
2022/01/28 10:22:57;;;;;;;11.55;3.95;;;;;;;4.47;78.10;102027.34;5027099;28;20054;-58
2022/01/28 10:25:27;;;;;;;11.40;4.15;;;;;;;4.50;78.12;102019.81;5022850;28;20119;-61
2022/01/28 10:28:02;;;;;;;14.10;5.22;;;;;;;4.55;78.12;102020.94;5024500;28;20131;-62
2022/01/28 10:30:34;;;;;;;10.50;5.20;;;;;;;4.57;78.33;102031.31;5026029;28;20663;-62
2022/01/28 10:33:15;;;;;;;11.68;4.20;;;;;;;4.58;78.00;102036.53;5024390;28;20520;-63
2022/01/28 10:35:49;;;;;;;12.38;4.30;;;;;;;4.61;77.95;102036.69;5022197;28;20073;-63
2022/01/28 10:38:36;;;;;;;12.80;4.15;;;;;;;4.63;77.59;102024.81;5026396;28;20081;-61
2022/01/28 10:41:21;;;;;;;10.40;4.03;;;;;;;4.65;78.13;102016.28;5020672;28;20103;-59
2022/01/28 10:43:51;;;;;;;7.20;3.13;;;;;;;4.69;78.09;102011.41;5021248;28;20050;-63
2022/01/28 10:46:25;;;;;;;9.63;3.63;;;;;;;4.71;77.91;102006.38;5027562;28;20037;-61
2022/01/28 10:48:55;;;;;;;10.48;3.85;;;;;;;4.76;77.79;102004.91;5025145;28;20069;-61
2022/01/28 10:51:35;;;;;;;11.25;3.65;;;;;;;4.82;77.70;102007.81;5026192;28;20493;-62
2022/01/28 10:54:22;;;;;;;10.93;4.18;;;;;;;4.88;78.04;102014.97;5024553;28;20045;-61
2022/01/28 10:56:57;;;;;;;8.30;3.30;;;;;;;4.91;78.24;102014.22;5021194;28;20068;-60
2022/01/28 10:59:27;;;;;;;8.50;3.17;;;;;;;4.96;77.82;102013.69;5025883;28;20049;-59
2022/01/28 11:01:54;;;;;;;10.48;4.30;;;;;;;5.05;77.38;102013.28;5026398;28;20083;-62
2022/01/28 11:04:22;;;;;;;11.75;4.07;;;;;;;5.18;77.46;102009.66;5023430;28;21384;-61
2022/01/28 11:06:50;;;;;;;9.07;4.43;;;;;;;5.34;78.06;101997.59;5024109;28;20049;-61
2022/01/28 11:09:20;;;;;;;13.07;5.78;;;;;;;5.48;77.69;101994.03;5022189;28;20454;-60
2022/01/28 11:11:48;;;;;;;9.48;4.07;;;;;;;5.59;78.36;101981.69;5024482;28;20103;-60
2022/01/28 11:14:16;;;;;;;12.32;3.83;;;;;;;5.71;76.87;101976.25;5025372;28;20056;-61
2022/01/28 11:16:42;;;;;;;11.15;3.65;;;;;;;5.75;76.96;101962.72;5005394;28;20101;-60
2022/01/28 11:19:13;;;;;;;7.03;3.33;;;;;;;5.79;76.48;101953.50;5019447;28;20053;-61
2022/01/28 11:21:54;;;;;;;7.70;2.50;;;;;;;5.90;76.37;101936.00;5023200;28;20116;-61
2022/01/28 11:24:48;;;;;;;10.68;4.05;;;;;;;6.03;77.26;101929.72;5024547;28;20148;-62
2022/01/28 11:27:34;;;;;;;8.52;3.28;;;;;;;6.17;76.25;101931.28;5024251;28;20625;-59
2022/01/28 11:30:23;;;;;;;7.13;3.58;;;;;;;6.29;75.76;101915.50;5025089;28;20445;-59
2022/01/28 11:33:01;;;;;;;10.63;3.00;;;;;;;6.38;76.65;101929.63;5026209;28;20079;-61
2022/01/28 11:35:33;;;;;;;9.25;3.17;;;;;;;6.51;76.82;101941.34;5019224;28;20107;-59
2022/01/28 11:38:04;;;;;;;10.75;4.03;;;;;;;6.64;76.50;101912.75;5019582;28;20111;-64
2022/01/28 11:40:43;;;;;;;8.93;3.72;;;;;;;6.76;75.47;101903.81;5019315;28;20289;-51
2022/01/28 11:43:20;;;;;;;7.25;3.55;;;;;;;6.84;75.17;101907.56;5023863;28;20083;-56
2022/01/28 11:45:47;;;;;;;8.48;2.60;;;;;;;6.86;74.87;101890.47;5022505;28;20164;-54
2022/01/28 11:48:14;;;;;;;4.97;2.42;;;;;;;6.91;75.50;101881.28;5018760;28;20061;-57
2022/01/28 11:50:50;;;;;;;11.65;2.75;;;;;;;7.00;74.58;101885.03;5026796;28;20065;-54
2022/01/28 11:53:21;;;;;;;7.75;3.10;;;;;;;7.11;75.07;101891.53;5020284;28;20049;-55
2022/01/28 11:56:01;;;;;;;10.77;2.75;;;;;;;7.18;72.87;101896.13;5021886;28;20095;-59
2022/01/28 11:59:03;;;;;;;5.60;2.10;;;;;;;7.25;74.70;101899.81;5021649;28;20138;-56
2022/01/28 12:02:10;;;;;;;7.57;2.83;;;;;;;7.32;74.25;101895.78;5026705;28;20091;-55
2022/01/28 12:04:39;;;;;;;6.53;2.05;;;;;;;7.41;72.73;101903.00;5036349;28;20048;-57
2022/01/28 12:07:23;;;;;;;4.95;2.30;;;;;;;7.41;72.90;101892.69;5024650;28;20053;-57
2022/01/28 12:09:53;;;;;;;5.07;2.15;;;;;;;7.51;73.66;101881.06;5023121;28;20107;-56
2022/01/28 12:12:44;;;;;;;4.10;1.85;;;;;;;7.58;72.49;101872.75;5027067;28;20051;-57
2022/01/28 12:15:14;;;;;;;7.10;2.42;;;;;;;7.66;72.89;101866.19;5038976;28;20056;-56
2022/01/28 12:17:43;;;;;;;4.93;1.83;;;;;;;7.80;74.18;101855.53;5030497;28;20049;-57
2022/01/28 12:20:48;;;;;;;6.22;2.85;;;;;;;7.95;72.23;101856.09;5029964;28;20140;-56
2022/01/28 12:23:28;;;;;;;10.07;3.42;;;;;;;8.06;73.02;101853.03;5028583;28;20049;-59
2022/01/28 12:25:57;;;;;;;22.17;9.43;;;;;;;8.16;72.78;101859.41;5032235;28;20406;-55
2022/01/28 12:28:42;;;;;;;7.05;2.40;;;;;;;8.18;72.52;101852.59;5030583;28;20661;-58
2022/01/28 12:31:19;;;;;;;10.82;2.28;;;;;;;8.28;72.72;101846.06;5022749;28;20050;-57
2022/01/28 12:33:50;;;;;;;11.63;3.38;;;;;;;8.35;71.83;101850.63;5024211;28;20132;-56